シアトル/タコマ の空港の天気 - METARとTAF

シアトル・タコマ国際空港 ( KSEA / SEA ) - アメリカ ワシントン州シアトル
飛行場実況気象(Metar)
観測時間02/21 07:53 PST (02/21 15:53 UTC)
風向・風速西南西 2m/s
視程10km以上
天気現象
少しの雲 雲底高度 4880m
全天の8割程度の雲 雲底高度 6400m
気温3.3℃
湿度73%
気圧1024hPa
METARKSEA 211553Z 25003KT 10SM FEW160 BKN210 03/M01 A3021 RMK AO2 SLP240 T00331011
過去の天気等 Google飛行場航空写真 Wunderground天気予報

過去48時間のMETAR

飛行場予報(TAF)
発表時間: 2/21 07:05 PST (2/21 15:05 UTC)
予報対象時間: 21日7時 PST ~ 22日10時 PST
風向・風速南東 3m/s
視程10km以上
全天の8割程度の雲 雲底高度 7620m
21日10時 PST から
風向・風速南南西 3m/s
視程10km以上
全天の8割程度の雲 雲底高度 7620m
21日19時 PST から
風向・風速南南西 4m/s
視程10km以上
全天の4割程度の雲 雲底高度 1520m
全天の8割程度の雲 雲底高度 3660m
全天の8割程度の雲 雲底高度 6100m
22日1時 PST から
風向・風速南 6m/s
視程10km以上
全天の8割程度の雲 雲底高度 300m
全天の8割程度の雲 雲底高度 1520m
22日9時 PST から
風向・風速南南西 4m/s
視程10km以上
全天の8割程度の雲 雲底高度 460m
全天の8割程度の雲 雲底高度 1520m
KSEA 211505Z 2115/2218 13006KT P6SM BKN250
FM211800 20006KT P6SM BKN250
FM220300 20008KT P6SM SCT050 BKN120 BKN200
FM220900 18012KT P6SM BKN010 BKN050
FM221700 21008KT P6SM BKN015 BKN050